createdAt,value
2022-10-07T06:02:00.319Z,1.60
2022-10-07T06:04:28.486Z,1.75
2022-10-07T06:06:56.235Z,1.75
2022-10-07T06:09:41.568Z,2.75
2022-10-07T06:12:28.438Z,1.67
2022-10-07T06:14:56.166Z,2.15
2022-10-07T06:17:25.267Z,1.45
2022-10-07T06:19:52.969Z,1.80
2022-10-07T06:22:20.665Z,1.30
2022-10-07T06:24:48.405Z,1.70
2022-10-07T06:27:16.084Z,1.10
2022-10-07T06:29:43.848Z,1.30
2022-10-07T06:32:11.514Z,1.67
2022-10-07T06:34:40.620Z,1.50
2022-10-07T06:37:08.317Z,1.55
2022-10-07T06:39:36.052Z,1.48
2022-10-07T06:42:03.742Z,1.48
2022-10-07T06:44:31.488Z,1.45
2022-10-07T06:46:59.218Z,1.30
2022-10-07T06:49:26.965Z,1.20
2022-10-07T06:51:56.043Z,1.30
2022-10-07T06:54:24.714Z,1.98
2022-10-07T06:56:52.422Z,1.67
2022-10-07T06:59:20.202Z,1.38
2022-10-07T07:01:47.949Z,1.42
2022-10-07T07:04:15.713Z,1.63
2022-10-07T07:06:43.742Z,1.88
2022-10-07T07:09:12.845Z,1.90
2022-10-07T07:11:43.421Z,1.50
2022-10-07T07:14:13.578Z,1.60
2022-10-07T07:16:41.953Z,2.33
2022-10-07T07:19:13.867Z,1.85
2022-10-07T07:21:42.027Z,1.33
2022-10-07T07:24:09.935Z,1.42
2022-10-07T07:26:40.362Z,2.28
2022-10-07T07:29:08.676Z,2.75
2022-10-07T07:31:37.537Z,2.33
2022-10-07T07:34:11.260Z,1.60
2022-10-07T07:36:41.117Z,2.28
2022-10-07T07:39:11.754Z,1.58
2022-10-07T07:41:45.986Z,1.92
2022-10-07T07:44:15.778Z,2.53
2022-10-07T07:46:45.022Z,2.03
2022-10-07T07:49:14.329Z,2.13
2022-10-07T07:51:43.461Z,2.08
2022-10-07T07:54:12.049Z,1.75
2022-10-07T07:56:41.222Z,2.50
2022-10-07T07:59:09.394Z,2.80
2022-10-07T08:01:37.143Z,2.35
2022-10-07T08:04:05.130Z,2.15
2022-10-07T08:06:33.090Z,2.22
2022-10-07T08:09:00.870Z,1.88
2022-10-07T08:11:29.330Z,2.13
2022-10-07T08:13:58.395Z,2.45
2022-10-07T08:16:28.691Z,2.42
2022-10-07T08:18:58.244Z,2.92
2022-10-07T08:21:32.827Z,3.10
2022-10-07T08:24:03.897Z,3.53
2022-10-07T08:26:33.653Z,2.40
2022-10-07T08:29:03.168Z,3.08
2022-10-07T08:31:31.062Z,2.63
2022-10-07T08:34:00.963Z,2.22
2022-10-07T08:36:31.741Z,1.92
2022-10-07T08:39:00.083Z,2.05
2022-10-07T08:41:42.308Z,1.60
2022-10-07T08:44:20.301Z,2.03
2022-10-07T08:47:00.092Z,2.55
2022-10-07T08:49:36.966Z,1.95
2022-10-07T08:52:18.169Z,1.95
2022-10-07T08:54:45.934Z,2.00
2022-10-07T08:57:37.269Z,2.33
2022-10-07T09:00:09.165Z,2.25
2022-10-07T09:02:44.053Z,1.48
2022-10-07T09:05:22.123Z,2.55
2022-10-07T09:07:52.420Z,2.40
2022-10-07T09:10:31.156Z,2.40
2022-10-07T09:13:03.625Z,2.00
2022-10-07T09:15:42.510Z,1.73
2022-10-07T09:18:19.554Z,2.10
2022-10-07T09:20:53.231Z,1.60
2022-10-07T09:23:25.240Z,2.00
2022-10-07T09:25:53.450Z,1.60
2022-10-07T09:28:25.065Z,2.45
2022-10-07T09:30:54.216Z,1.63
2022-10-07T09:33:24.159Z,1.83
2022-10-07T09:35:57.563Z,2.15
2022-10-07T09:41:17.044Z,2.03
2022-10-07T09:46:40.406Z,1.98
2022-10-07T09:49:08.823Z,2.00
2022-10-07T09:51:39.592Z,2.78
2022-10-07T09:54:19.506Z,1.95
2022-10-07T09:56:48.324Z,2.78
2022-10-07T09:59:21.595Z,2.53
2022-10-07T10:04:29.294Z,4.15
2022-10-07T10:07:02.094Z,3.50
2022-10-07T10:09:30.023Z,3.08
2022-10-07T10:12:13.090Z,2.50
2022-10-07T10:14:49.822Z,2.03
2022-10-07T10:17:29.510Z,2.50
2022-10-07T10:20:17.738Z,2.05
2022-10-07T10:22:45.845Z,1.20
2022-10-07T10:25:32.821Z,1.48
2022-10-07T10:28:08.443Z,1.67
2022-10-07T10:30:41.657Z,2.25
2022-10-07T10:33:20.790Z,2.03
2022-10-07T10:35:57.287Z,1.60
2022-10-07T10:38:35.189Z,1.63
2022-10-07T10:41:10.527Z,1.65
2022-10-07T10:44:04.555Z,1.42
2022-10-07T10:46:47.277Z,1.33
2022-10-07T10:49:26.003Z,1.30
2022-10-07T10:52:21.105Z,1.33
2022-10-07T10:55:01.176Z,1.45
2022-10-07T10:57:38.539Z,1.63
2022-10-07T11:00:11.182Z,2.25
2022-10-07T11:03:02.272Z,2.25
2022-10-07T11:05:33.681Z,1.25
2022-10-07T11:08:06.385Z,1.33
2022-10-07T11:10:38.405Z,1.55
2022-10-07T11:13:22.456Z,1.20
2022-10-07T11:15:56.954Z,1.80
2022-10-07T11:18:30.995Z,1.67
2022-10-07T11:21:02.786Z,1.10
2022-10-07T11:23:48.508Z,1.38
2022-10-07T11:26:22.614Z,1.38
2022-10-07T11:28:52.658Z,1.48
2022-10-07T11:31:30.519Z,2.13
2022-10-07T11:34:11.916Z,1.50
2022-10-07T11:36:52.588Z,0.80
2022-10-07T11:39:20.446Z,1.45
2022-10-07T11:41:54.233Z,0.70
2022-10-07T11:44:27.715Z,0.98
2022-10-07T11:46:58.977Z,0.85
2022-10-07T11:49:32.818Z,0.85
2022-10-07T11:52:05.698Z,1.50
2022-10-07T11:54:42.265Z,1.40
2022-10-07T11:57:22.008Z,1.92
2022-10-07T11:59:52.364Z,0.90
2022-10-07T12:02:44.939Z,1.23
2022-10-07T12:06:00.763Z,1.10
2022-10-07T12:08:33.105Z,1.80
2022-10-07T12:11:43.714Z,2.27
2022-10-07T12:14:33.090Z,1.25
2022-10-07T12:17:28.139Z,1.17
2022-10-07T12:20:33.075Z,1.05
2022-10-07T12:23:49.864Z,2.10
2022-10-07T12:26:52.764Z,1.05
2022-10-07T12:29:33.506Z,1.30
2022-10-07T12:32:01.620Z,1.08
2022-10-07T12:34:36.497Z,1.77
2022-10-07T12:37:43.399Z,1.05
2022-10-07T12:40:18.139Z,1.13
2022-10-07T12:42:54.668Z,1.20
2022-10-07T12:45:25.722Z,1.70
2022-10-07T12:47:57.887Z,1.20
2022-10-07T12:50:26.639Z,2.10
2022-10-07T12:52:58.692Z,1.55
2022-10-07T12:55:32.299Z,1.30
2022-10-07T12:58:17.362Z,1.98
2022-10-07T13:00:59.825Z,1.10
2022-10-07T13:04:03.069Z,1.77
2022-10-07T13:07:18.109Z,2.05
2022-10-07T13:10:26.745Z,1.10
2022-10-07T13:12:56.965Z,1.20
2022-10-07T13:15:41.344Z,1.00
2022-10-07T13:18:20.038Z,0.95
2022-10-07T13:21:10.894Z,1.27
2022-10-07T13:23:38.654Z,1.35
2022-10-07T13:26:06.636Z,1.23
2022-10-07T13:28:39.604Z,0.95
2022-10-07T13:33:44.431Z,1.15
2022-10-07T13:36:18.758Z,1.00
2022-10-07T13:38:47.941Z,1.40
2022-10-07T13:41:24.661Z,1.20
2022-10-07T13:43:55.952Z,2.17
2022-10-07T13:46:27.553Z,1.52
2022-10-07T13:48:57.009Z,1.08
2022-10-07T13:51:36.576Z,1.17
2022-10-07T13:54:07.821Z,1.20
2022-10-07T13:56:40.760Z,1.10
2022-10-07T13:59:18.038Z,1.73
2022-10-07T14:01:49.712Z,1.17
2022-10-07T14:04:26.200Z,1.77
2022-10-07T14:07:00.304Z,1.35
2022-10-07T14:09:45.088Z,0.95
2022-10-07T14:12:16.018Z,1.30
2022-10-07T14:14:46.012Z,0.82
2022-10-07T14:17:28.454Z,1.38
2022-10-07T14:20:00.123Z,1.77
2022-10-07T14:22:33.987Z,1.25
2022-10-07T14:25:04.281Z,2.03
2022-10-07T14:27:53.539Z,1.02
2022-10-07T14:30:56.340Z,0.93
2022-10-07T14:33:48.351Z,1.88
2022-10-07T14:36:18.438Z,1.15
2022-10-07T14:38:47.818Z,1.25
2022-10-07T14:41:18.130Z,1.15
2022-10-07T14:43:47.836Z,1.02
2022-10-07T14:46:18.903Z,1.25
2022-10-07T14:48:49.219Z,2.17
2022-10-07T14:51:20.009Z,0.80
2022-10-07T14:53:50.519Z,1.00
2022-10-07T14:56:28.471Z,1.38
2022-10-07T14:58:56.763Z,1.63
2022-10-07T15:01:24.932Z,1.05
2022-10-07T15:03:54.050Z,0.85
2022-10-07T15:06:21.938Z,1.38
2022-10-07T15:08:50.079Z,0.90
2022-10-07T15:11:19.745Z,0.98
2022-10-07T15:13:48.496Z,0.80
2022-10-07T15:16:18.457Z,0.85
2022-10-07T15:18:51.833Z,0.70
2022-10-07T15:21:22.264Z,1.02
2022-10-07T15:23:53.150Z,0.60
2022-10-07T15:26:24.039Z,0.60
2022-10-07T15:28:53.402Z,1.50
2022-10-07T15:31:21.207Z,1.77
2022-10-07T15:33:49.256Z,0.70
2022-10-07T15:36:17.736Z,0.80
2022-10-07T15:38:46.930Z,1.17
2022-10-07T15:41:32.745Z,1.58
2022-10-07T15:44:01.560Z,1.13
2022-10-07T15:46:29.535Z,0.85
2022-10-07T15:48:59.214Z,1.00
2022-10-07T15:51:29.406Z,0.90
2022-10-07T15:53:58.909Z,0.88
2022-10-07T15:56:26.671Z,1.20
2022-10-07T15:58:54.364Z,0.95
2022-10-07T16:01:22.188Z,1.15
2022-10-07T16:03:50.780Z,1.23
2022-10-07T16:06:21.165Z,0.98
2022-10-07T16:08:49.310Z,0.57
2022-10-07T16:11:19.122Z,0.90
2022-10-07T16:13:47.950Z,0.63
2022-10-07T16:16:17.581Z,1.05
2022-10-07T16:18:47.125Z,1.15
2022-10-07T16:21:17.318Z,0.50
2022-10-07T16:23:47.291Z,0.73
2022-10-07T16:26:17.405Z,0.90
2022-10-07T16:29:05.841Z,0.90
2022-10-07T16:31:35.647Z,1.73
2022-10-07T16:34:04.072Z,1.40
2022-10-07T16:36:32.267Z,0.80
2022-10-07T16:39:01.259Z,1.00
2022-10-07T16:41:28.967Z,0.85
2022-10-07T16:43:59.248Z,0.50
2022-10-07T16:46:27.597Z,0.73
2022-10-07T16:48:55.960Z,0.88
2022-10-07T16:51:25.238Z,0.88
2022-10-07T16:53:55.677Z,1.27
2022-10-07T16:56:24.202Z,0.65
2022-10-07T16:58:57.251Z,1.15
2022-10-07T17:01:27.576Z,1.00
2022-10-07T17:03:57.302Z,0.88
2022-10-07T17:06:27.079Z,1.00
2022-10-07T17:08:56.692Z,1.15
2022-10-07T17:11:31.370Z,0.77
2022-10-07T17:14:00.871Z,0.70
2022-10-07T17:16:32.531Z,1.05
2022-10-07T17:19:00.822Z,1.10
2022-10-07T17:21:29.048Z,0.50
2022-10-07T17:23:58.535Z,0.82
2022-10-07T17:26:27.826Z,0.30
2022-10-07T17:29:03.260Z,0.93
2022-10-07T17:31:33.805Z,0.82
2022-10-07T17:34:03.183Z,0.77
2022-10-07T17:36:32.182Z,1.05
2022-10-07T17:39:00.362Z,0.70
2022-10-07T17:41:29.654Z,0.52
2022-10-07T17:43:58.850Z,1.25
2022-10-07T17:46:28.111Z,1.17
2022-10-07T17:48:59.157Z,0.60
2022-10-07T17:51:28.953Z,0.80
2022-10-07T17:53:58.095Z,1.50
2022-10-07T17:56:26.330Z,1.10
2022-10-07T17:58:54.387Z,1.27
2022-10-07T18:01:26.379Z,1.35
2022-10-07T18:03:56.179Z,2.35
2022-10-07T18:06:26.809Z,2.60
2022-10-07T18:08:54.788Z,3.63
2022-10-07T18:11:22.686Z,4.13
2022-10-07T18:14:07.907Z,4.70
2022-10-07T18:16:36.775Z,4.63
2022-10-07T18:19:04.566Z,4.72
2022-10-07T18:21:33.682Z,4.30
2022-10-07T18:24:01.570Z,5.20
2022-10-07T18:26:29.667Z,4.40
2022-10-07T18:28:58.067Z,5.10
2022-10-07T18:31:26.913Z,3.05
2022-10-07T18:33:54.731Z,1.90
2022-10-07T18:36:22.533Z,1.85
2022-10-07T18:38:51.629Z,1.63
2022-10-07T18:41:19.607Z,1.90
2022-10-07T18:43:47.639Z,2.20
2022-10-07T18:46:17.470Z,1.55
2022-10-07T18:48:47.942Z,1.35
2022-10-07T18:51:16.749Z,1.55
2022-10-07T18:53:47.412Z,1.17
2022-10-07T18:56:18.765Z,1.85
2022-10-07T18:58:48.485Z,1.85
2022-10-07T19:01:18.385Z,1.95
2022-10-07T19:03:46.617Z,1.25
2022-10-07T19:06:17.774Z,0.95
2022-10-07T19:08:46.034Z,1.90
2022-10-07T19:11:16.670Z,1.48
2022-10-07T19:13:51.901Z,1.50
2022-10-07T19:16:22.178Z,1.25
2022-10-07T19:18:52.476Z,1.88
2022-10-07T19:21:20.984Z,1.05
2022-10-07T19:23:49.539Z,1.80
2022-10-07T19:26:21.759Z,1.67
2022-10-07T19:28:50.818Z,2.67
2022-10-07T19:31:23.114Z,3.17
2022-10-07T19:33:52.663Z,4.67
2022-10-07T19:36:21.842Z,5.25
2022-10-07T19:38:52.419Z,5.88
2022-10-07T19:41:23.961Z,4.72
2022-10-07T19:43:52.762Z,4.50
2022-10-07T19:46:22.283Z,3.78
2022-10-07T19:48:50.450Z,4.40
2022-10-07T19:51:20.065Z,4.05
2022-10-07T19:53:48.415Z,4.60
2022-10-07T19:56:20.136Z,3.03
2022-10-07T19:58:51.720Z,4.20
2022-10-07T20:01:21.753Z,3.30
2022-10-07T20:03:50.074Z,3.25
2022-10-07T20:06:17.793Z,3.53
2022-10-07T20:08:47.310Z,4.07
2022-10-07T20:11:16.150Z,3.63
2022-10-07T20:13:43.870Z,3.92
2022-10-07T20:16:16.203Z,3.55
2022-10-07T20:18:44.008Z,3.03
2022-10-07T20:21:15.963Z,4.05
2022-10-07T20:23:45.529Z,3.63
2022-10-07T20:26:16.029Z,3.58
2022-10-07T20:28:43.789Z,2.75
2022-10-07T20:31:14.997Z,3.83
2022-10-07T20:33:44.589Z,3.78
2022-10-07T20:36:15.218Z,4.57
2022-10-07T20:39:00.864Z,3.50
2022-10-07T20:41:46.654Z,3.58
2022-10-07T20:44:16.225Z,4.10
2022-10-07T20:46:45.548Z,4.32
2022-10-07T20:49:22.516Z,4.07
2022-10-07T20:51:50.462Z,4.22
2022-10-07T20:54:18.604Z,4.30
2022-10-07T20:56:46.911Z,3.42
2022-10-07T20:59:15.069Z,3.50
2022-10-07T21:01:44.217Z,3.13
2022-10-07T21:04:15.538Z,2.15
2022-10-07T21:06:43.831Z,3.10
2022-10-07T21:09:12.108Z,3.47
2022-10-07T21:11:39.900Z,3.38
2022-10-07T21:14:07.661Z,3.75
2022-10-07T21:16:36.358Z,2.83
2022-10-07T21:19:04.523Z,2.88
2022-10-07T21:21:33.824Z,3.40
2022-10-07T21:24:01.585Z,3.55
2022-10-07T21:26:29.280Z,3.50
2022-10-07T21:28:56.968Z,3.05
2022-10-07T21:31:25.452Z,2.97
2022-10-07T21:33:53.423Z,2.55
2022-10-07T21:36:24.173Z,3.15
2022-10-07T21:38:58.230Z,2.00
2022-10-07T21:41:30.974Z,2.45
2022-10-07T21:43:59.344Z,2.22
2022-10-07T21:46:29.301Z,3.03
2022-10-07T21:48:57.312Z,2.42
2022-10-07T21:51:26.961Z,3.00
2022-10-07T21:53:58.054Z,2.75
2022-10-07T21:56:27.381Z,3.05
2022-10-07T21:58:55.114Z,3.13
2022-10-07T22:01:24.450Z,3.42
2022-10-07T22:03:55.449Z,3.80
2022-10-07T22:06:44.081Z,3.92
2022-10-07T22:09:13.802Z,3.50
2022-10-07T22:11:41.702Z,2.30
2022-10-07T22:14:12.743Z,3.72
2022-10-07T22:16:41.761Z,2.25
2022-10-07T22:19:10.677Z,2.90
2022-10-07T22:21:40.173Z,4.80
2022-10-07T22:24:09.416Z,5.05
2022-10-07T22:26:40.731Z,6.85
2022-10-07T22:29:10.425Z,6.35
2022-10-07T22:31:38.845Z,6.45
2022-10-07T22:34:07.656Z,6.03
2022-10-07T22:36:35.296Z,7.25
2022-10-07T22:39:03.125Z,5.10
2022-10-07T22:41:30.896Z,4.78
2022-10-07T22:44:00.021Z,3.40
2022-10-07T22:46:29.712Z,3.53
2022-10-07T22:48:58.706Z,3.63
2022-10-07T22:51:28.446Z,3.00
2022-10-07T22:53:57.634Z,2.97
2022-10-07T22:56:27.878Z,2.83
2022-10-07T22:58:58.787Z,2.75
2022-10-07T23:01:29.617Z,2.00
2022-10-07T23:03:58.713Z,2.40
2022-10-07T23:06:26.571Z,2.70
2022-10-07T23:08:55.028Z,1.85
2022-10-07T23:11:24.467Z,1.98
2022-10-07T23:13:52.664Z,1.85
2022-10-07T23:16:22.641Z,2.10
2022-10-07T23:18:53.467Z,1.83
2022-10-07T23:21:23.437Z,2.05
2022-10-07T23:23:52.909Z,1.95
2022-10-07T23:26:23.251Z,1.40
2022-10-07T23:28:52.464Z,2.47
2022-10-07T23:31:22.724Z,1.88
2022-10-07T23:33:52.906Z,1.88
2022-10-07T23:36:22.184Z,1.40
2022-10-07T23:38:51.211Z,1.17
2022-10-07T23:41:21.045Z,1.70
2022-10-07T23:43:49.687Z,2.00
2022-10-07T23:46:18.793Z,1.67
2022-10-07T23:48:47.294Z,2.50
2022-10-07T23:51:19.759Z,2.25
2022-10-07T23:53:48.191Z,2.10
2022-10-07T23:56:18.493Z,1.40
2022-10-07T23:58:46.591Z,1.52
